sensor_id;sensor_type;location;lat;lon;timestamp;P1;durP1;ratioP1;P2;durP2;ratioP2
32108;SDS011;18624;50.042;8.436;2022-12-01T00:01:04;19.30;;;13.70;;
32108;SDS011;18624;50.042;8.436;2022-12-01T00:03:31;19.90;;;15.68;;
32108;SDS011;18624;50.042;8.436;2022-12-01T00:08:25;26.17;;;16.05;;
32108;SDS011;18624;50.042;8.436;2022-12-01T00:10:54;21.40;;;15.10;;
32108;SDS011;18624;50.042;8.436;2022-12-01T00:13:21;19.63;;;14.30;;
32108;SDS011;18624;50.042;8.436;2022-12-01T00:15:48;22.38;;;13.93;;
32108;SDS011;18624;50.042;8.436;2022-12-01T00:18:14;19.75;;;13.30;;
32108;SDS011;18624;50.042;8.436;2022-12-01T00:20:41;21.23;;;13.82;;
32108;SDS011;18624;50.042;8.436;2022-12-01T00:23:07;21.95;;;13.07;;
32108;SDS011;18624;50.042;8.436;2022-12-01T00:25:33;18.98;;;13.25;;
32108;SDS011;18624;50.042;8.436;2022-12-01T00:28:00;20.73;;;13.13;;
32108;SDS011;18624;50.042;8.436;2022-12-01T00:30:26;21.13;;;13.82;;
32108;SDS011;18624;50.042;8.436;2022-12-01T00:32:53;20.73;;;12.75;;
32108;SDS011;18624;50.042;8.436;2022-12-01T00:35:19;20.60;;;13.40;;
32108;SDS011;18624;50.042;8.436;2022-12-01T00:37:45;23.05;;;13.82;;
32108;SDS011;18624;50.042;8.436;2022-12-01T00:40:12;20.15;;;12.70;;
32108;SDS011;18624;50.042;8.436;2022-12-01T00:42:39;22.27;;;13.68;;
32108;SDS011;18624;50.042;8.436;2022-12-01T00:45:06;20.38;;;13.38;;
32108;SDS011;18624;50.042;8.436;2022-12-01T00:47:32;22.23;;;13.93;;
32108;SDS011;18624;50.042;8.436;2022-12-01T00:49:59;21.77;;;14.35;;
32108;SDS011;18624;50.042;8.436;2022-12-01T00:52:25;19.67;;;13.43;;
32108;SDS011;18624;50.042;8.436;2022-12-01T00:54:52;25.10;;;15.40;;
32108;SDS011;18624;50.042;8.436;2022-12-01T00:57:18;27.10;;;16.17;;
32108;SDS011;18624;50.042;8.436;2022-12-01T00:59:45;25.88;;;15.40;;
32108;SDS011;18624;50.042;8.436;2022-12-01T01:02:12;25.13;;;14.98;;
32108;SDS011;18624;50.042;8.436;2022-12-01T01:04:39;26.17;;;15.93;;
32108;SDS011;18624;50.042;8.436;2022-12-01T01:07:05;28.10;;;15.95;;
32108;SDS011;18624;50.042;8.436;2022-12-01T01:09:31;22.63;;;15.95;;
32108;SDS011;18624;50.042;8.436;2022-12-01T01:11:58;26.90;;;16.65;;
32108;SDS011;18624;50.042;8.436;2022-12-01T01:14:25;26.20;;;16.58;;
32108;SDS011;18624;50.042;8.436;2022-12-01T01:16:52;26.10;;;16.42;;
32108;SDS011;18624;50.042;8.436;2022-12-01T01:19:20;26.38;;;16.67;;
32108;SDS011;18624;50.042;8.436;2022-12-01T01:21:47;25.27;;;16.15;;
32108;SDS011;18624;50.042;8.436;2022-12-01T01:24:13;29.00;;;16.27;;
32108;SDS011;18624;50.042;8.436;2022-12-01T01:26:40;26.77;;;17.33;;
32108;SDS011;18624;50.042;8.436;2022-12-01T01:29:07;28.80;;;16.45;;
32108;SDS011;18624;50.042;8.436;2022-12-01T01:31:33;27.20;;;17.55;;
32108;SDS011;18624;50.042;8.436;2022-12-01T01:34:00;32.85;;;17.35;;
32108;SDS011;18624;50.042;8.436;2022-12-01T01:36:27;25.70;;;15.98;;
32108;SDS011;18624;50.042;8.436;2022-12-01T01:38:53;26.63;;;15.63;;
32108;SDS011;18624;50.042;8.436;2022-12-01T01:41:21;27.15;;;15.85;;
32108;SDS011;18624;50.042;8.436;2022-12-01T01:43:49;25.70;;;17.35;;
32108;SDS011;18624;50.042;8.436;2022-12-01T01:46:20;26.63;;;16.67;;
32108;SDS011;18624;50.042;8.436;2022-12-01T01:48:55;25.60;;;15.15;;
32108;SDS011;18624;50.042;8.436;2022-12-01T01:51:26;26.27;;;17.63;;
32108;SDS011;18624;50.042;8.436;2022-12-01T01:54:05;24.48;;;13.75;;
32108;SDS011;18624;50.042;8.436;2022-12-01T01:56:34;24.08;;;16.35;;
32108;SDS011;18624;50.042;8.436;2022-12-01T01:59:02;24.88;;;15.40;;
32108;SDS011;18624;50.042;8.436;2022-12-01T02:01:29;29.73;;;17.88;;
32108;SDS011;18624;50.042;8.436;2022-12-01T02:03:56;28.33;;;17.23;;
32108;SDS011;18624;50.042;8.436;2022-12-01T02:06:23;25.95;;;17.35;;
32108;SDS011;18624;50.042;8.436;2022-12-01T02:08:50;25.70;;;16.02;;
32108;SDS011;18624;50.042;8.436;2022-12-01T02:22:17;25.13;;;17.63;;
32108;SDS011;18624;50.042;8.436;2022-12-01T02:25:05;29.23;;;17.85;;
32108;SDS011;18624;50.042;8.436;2022-12-01T02:28:22;30.67;;;18.27;;
32108;SDS011;18624;50.042;8.436;2022-12-01T02:30:54;31.40;;;18.60;;
32108;SDS011;18624;50.042;8.436;2022-12-01T02:33:28;28.83;;;18.98;;
32108;SDS011;18624;50.042;8.436;2022-12-01T02:38:45;31.80;;;19.30;;
32108;SDS011;18624;50.042;8.436;2022-12-01T02:41:18;31.90;;;19.85;;
32108;SDS011;18624;50.042;8.436;2022-12-01T02:43:53;29.00;;;18.67;;
32108;SDS011;18624;50.042;8.436;2022-12-01T02:46:38;28.08;;;18.45;;
32108;SDS011;18624;50.042;8.436;2022-12-01T02:49:12;28.42;;;16.50;;
32108;SDS011;18624;50.042;8.436;2022-12-01T02:51:43;27.27;;;17.92;;
32108;SDS011;18624;50.042;8.436;2022-12-01T02:54:11;29.25;;;18.92;;
32108;SDS011;18624;50.042;8.436;2022-12-01T02:56:39;32.90;;;17.10;;
32108;SDS011;18624;50.042;8.436;2022-12-01T02:59:12;27.63;;;17.77;;
32108;SDS011;18624;50.042;8.436;2022-12-01T03:10:01;30.25;;;18.67;;
32108;SDS011;18624;50.042;8.436;2022-12-01T03:21:09;27.65;;;16.27;;
32108;SDS011;18624;50.042;8.436;2022-12-01T03:23:41;28.10;;;17.02;;
32108;SDS011;18624;50.042;8.436;2022-12-01T03:26:13;29.52;;;19.65;;
32108;SDS011;18624;50.042;8.436;2022-12-01T03:28:46;31.48;;;20.15;;
32108;SDS011;18624;50.042;8.436;2022-12-01T03:31:18;33.45;;;17.90;;
32108;SDS011;18624;50.042;8.436;2022-12-01T03:33:50;27.10;;;17.63;;
32108;SDS011;18624;50.042;8.436;2022-12-01T03:36:24;30.50;;;18.00;;
32108;SDS011;18624;50.042;8.436;2022-12-01T03:38:58;28.75;;;18.80;;
32108;SDS011;18624;50.042;8.436;2022-12-01T03:41:29;25.20;;;16.85;;
32108;SDS011;18624;50.042;8.436;2022-12-01T03:44:07;29.65;;;18.27;;
32108;SDS011;18624;50.042;8.436;2022-12-01T03:49:17;28.23;;;17.45;;
32108;SDS011;18624;50.042;8.436;2022-12-01T03:57:05;31.25;;;19.55;;
32108;SDS011;18624;50.042;8.436;2022-12-01T03:59:36;19.92;;;13.70;;
32108;SDS011;18624;50.042;8.436;2022-12-01T04:02:05;32.47;;;20.23;;
32108;SDS011;18624;50.042;8.436;2022-12-01T04:04:33;28.00;;;19.52;;
32108;SDS011;18624;50.042;8.436;2022-12-01T04:06:59;34.80;;;20.92;;
32108;SDS011;18624;50.042;8.436;2022-12-01T04:09:26;30.25;;;19.55;;
32108;SDS011;18624;50.042;8.436;2022-12-01T04:11:52;34.22;;;19.15;;
32108;SDS011;18624;50.042;8.436;2022-12-01T04:14:37;29.63;;;18.90;;
32108;SDS011;18624;50.042;8.436;2022-12-01T04:17:04;29.65;;;17.80;;
32108;SDS011;18624;50.042;8.436;2022-12-01T04:19:30;34.53;;;19.67;;
32108;SDS011;18624;50.042;8.436;2022-12-01T04:21:57;30.67;;;19.83;;
32108;SDS011;18624;50.042;8.436;2022-12-01T04:24:23;31.35;;;19.33;;
32108;SDS011;18624;50.042;8.436;2022-12-01T04:26:49;30.63;;;19.17;;
32108;SDS011;18624;50.042;8.436;2022-12-01T04:29:16;29.35;;;18.48;;
32108;SDS011;18624;50.042;8.436;2022-12-01T04:31:42;31.05;;;18.65;;
32108;SDS011;18624;50.042;8.436;2022-12-01T04:34:09;30.85;;;17.75;;
32108;SDS011;18624;50.042;8.436;2022-12-01T04:36:36;26.08;;;17.92;;
32108;SDS011;18624;50.042;8.436;2022-12-01T04:39:02;28.55;;;17.20;;
32108;SDS011;18624;50.042;8.436;2022-12-01T04:41:29;30.65;;;19.08;;
32108;SDS011;18624;50.042;8.436;2022-12-01T04:43:55;29.10;;;18.27;;
32108;SDS011;18624;50.042;8.436;2022-12-01T04:46:22;29.50;;;20.10;;
32108;SDS011;18624;50.042;8.436;2022-12-01T04:48:49;30.10;;;16.90;;
32108;SDS011;18624;50.042;8.436;2022-12-01T04:51:16;32.63;;;19.85;;
32108;SDS011;18624;50.042;8.436;2022-12-01T04:53:42;29.45;;;17.25;;
32108;SDS011;18624;50.042;8.436;2022-12-01T04:56:09;32.42;;;19.52;;
32108;SDS011;18624;50.042;8.436;2022-12-01T04:58:36;31.00;;;19.35;;
32108;SDS011;18624;50.042;8.436;2022-12-01T05:01:04;30.95;;;18.77;;
32108;SDS011;18624;50.042;8.436;2022-12-01T05:03:39;36.30;;;22.13;;
32108;SDS011;18624;50.042;8.436;2022-12-01T05:06:15;35.22;;;20.27;;
32108;SDS011;18624;50.042;8.436;2022-12-01T05:08:46;28.55;;;18.25;;
32108;SDS011;18624;50.042;8.436;2022-12-01T05:11:13;29.80;;;19.67;;
32108;SDS011;18624;50.042;8.436;2022-12-01T05:13:41;33.83;;;20.85;;
32108;SDS011;18624;50.042;8.436;2022-12-01T05:16:13;32.08;;;19.95;;
32108;SDS011;18624;50.042;8.436;2022-12-01T05:18:42;35.53;;;20.98;;
32108;SDS011;18624;50.042;8.436;2022-12-01T05:21:09;30.83;;;19.75;;
32108;SDS011;18624;50.042;8.436;2022-12-01T05:23:36;30.45;;;20.63;;
32108;SDS011;18624;50.042;8.436;2022-12-01T05:26:05;29.20;;;19.85;;
32108;SDS011;18624;50.042;8.436;2022-12-01T05:28:33;31.02;;;19.17;;
32108;SDS011;18624;50.042;8.436;2022-12-01T05:31:00;29.80;;;19.35;;
32108;SDS011;18624;50.042;8.436;2022-12-01T05:33:27;33.42;;;18.52;;
32108;SDS011;18624;50.042;8.436;2022-12-01T05:35:54;28.58;;;17.15;;
32108;SDS011;18624;50.042;8.436;2022-12-01T05:38:21;31.80;;;19.50;;
32108;SDS011;18624;50.042;8.436;2022-12-01T05:40:51;29.52;;;17.50;;
32108;SDS011;18624;50.042;8.436;2022-12-01T05:43:19;28.98;;;16.25;;
32108;SDS011;18624;50.042;8.436;2022-12-01T05:45:54;26.08;;;17.00;;
32108;SDS011;18624;50.042;8.436;2022-12-01T05:48:21;32.38;;;17.90;;
32108;SDS011;18624;50.042;8.436;2022-12-01T05:50:48;28.88;;;18.25;;
32108;SDS011;18624;50.042;8.436;2022-12-01T05:53:15;29.25;;;17.05;;
32108;SDS011;18624;50.042;8.436;2022-12-01T05:55:41;30.65;;;17.65;;
32108;SDS011;18624;50.042;8.436;2022-12-01T05:58:08;27.25;;;18.08;;
32108;SDS011;18624;50.042;8.436;2022-12-01T06:00:35;32.65;;;19.63;;
32108;SDS011;18624;50.042;8.436;2022-12-01T06:03:11;28.27;;;17.92;;
32108;SDS011;18624;50.042;8.436;2022-12-01T06:05:37;28.58;;;19.17;;
32108;SDS011;18624;50.042;8.436;2022-12-01T06:08:04;28.33;;;19.63;;
32108;SDS011;18624;50.042;8.436;2022-12-01T06:10:30;28.60;;;18.05;;
32108;SDS011;18624;50.042;8.436;2022-12-01T06:12:57;28.23;;;18.20;;
32108;SDS011;18624;50.042;8.436;2022-12-01T06:15:25;30.42;;;20.40;;
32108;SDS011;18624;50.042;8.436;2022-12-01T06:17:51;28.20;;;18.23;;
32108;SDS011;18624;50.042;8.436;2022-12-01T06:20:18;28.77;;;19.25;;
32108;SDS011;18624;50.042;8.436;2022-12-01T06:22:44;30.42;;;19.65;;
32108;SDS011;18624;50.042;8.436;2022-12-01T06:25:11;31.33;;;18.92;;
32108;SDS011;18624;50.042;8.436;2022-12-01T06:27:37;31.08;;;20.50;;
32108;SDS011;18624;50.042;8.436;2022-12-01T06:30:04;35.53;;;22.67;;
32108;SDS011;18624;50.042;8.436;2022-12-01T06:32:31;32.13;;;19.70;;
32108;SDS011;18624;50.042;8.436;2022-12-01T06:34:58;31.08;;;21.70;;
32108;SDS011;18624;50.042;8.436;2022-12-01T06:37:25;34.80;;;21.10;;
32108;SDS011;18624;50.042;8.436;2022-12-01T06:39:52;31.85;;;22.15;;
32108;SDS011;18624;50.042;8.436;2022-12-01T06:42:18;33.42;;;21.42;;
32108;SDS011;18624;50.042;8.436;2022-12-01T06:44:45;35.15;;;20.27;;
32108;SDS011;18624;50.042;8.436;2022-12-01T06:47:11;30.60;;;18.45;;
32108;SDS011;18624;50.042;8.436;2022-12-01T06:49:38;29.80;;;19.13;;
32108;SDS011;18624;50.042;8.436;2022-12-01T06:52:04;31.02;;;20.77;;
32108;SDS011;18624;50.042;8.436;2022-12-01T06:54:31;28.30;;;19.52;;
32108;SDS011;18624;50.042;8.436;2022-12-01T06:56:58;31.33;;;19.80;;
32108;SDS011;18624;50.042;8.436;2022-12-01T06:59:25;29.20;;;18.27;;
32108;SDS011;18624;50.042;8.436;2022-12-01T07:01:51;28.80;;;18.67;;
32108;SDS011;18624;50.042;8.436;2022-12-01T07:04:18;30.33;;;19.00;;
32108;SDS011;18624;50.042;8.436;2022-12-01T07:06:45;31.55;;;19.52;;
32108;SDS011;18624;50.042;8.436;2022-12-01T07:09:11;31.17;;;20.13;;
32108;SDS011;18624;50.042;8.436;2022-12-01T07:11:38;35.03;;;20.70;;
32108;SDS011;18624;50.042;8.436;2022-12-01T07:14:04;33.83;;;22.20;;
32108;SDS011;18624;50.042;8.436;2022-12-01T07:16:31;29.40;;;17.92;;
32108;SDS011;18624;50.042;8.436;2022-12-01T07:18:57;27.20;;;17.00;;
32108;SDS011;18624;50.042;8.436;2022-12-01T07:21:25;32.30;;;17.83;;
32108;SDS011;18624;50.042;8.436;2022-12-01T07:23:51;32.15;;;20.10;;
32108;SDS011;18624;50.042;8.436;2022-12-01T07:26:19;26.60;;;17.05;;
32108;SDS011;18624;50.042;8.436;2022-12-01T07:28:46;28.30;;;17.92;;
32108;SDS011;18624;50.042;8.436;2022-12-01T07:31:16;28.55;;;18.48;;
32108;SDS011;18624;50.042;8.436;2022-12-01T07:33:44;20.60;;;12.90;;
32108;SDS011;18624;50.042;8.436;2022-12-01T07:36:11;24.10;;;16.65;;
32108;SDS011;18624;50.042;8.436;2022-12-01T07:38:38;26.40;;;15.57;;
32108;SDS011;18624;50.042;8.436;2022-12-01T07:41:09;25.15;;;15.70;;
32108;SDS011;18624;50.042;8.436;2022-12-01T07:43:37;25.05;;;15.68;;
32108;SDS011;18624;50.042;8.436;2022-12-01T07:46:08;23.17;;;15.95;;
32108;SDS011;18624;50.042;8.436;2022-12-01T07:48:44;24.42;;;15.70;;
32108;SDS011;18624;50.042;8.436;2022-12-01T07:51:11;23.02;;;15.57;;
32108;SDS011;18624;50.042;8.436;2022-12-01T07:53:42;26.27;;;16.73;;
32108;SDS011;18624;50.042;8.436;2022-12-01T07:56:16;21.67;;;14.63;;
32108;SDS011;18624;50.042;8.436;2022-12-01T07:58:43;24.23;;;16.67;;
32108;SDS011;18624;50.042;8.436;2022-12-01T08:01:11;25.30;;;16.10;;
32108;SDS011;18624;50.042;8.436;2022-12-01T08:03:39;24.50;;;16.08;;
32108;SDS011;18624;50.042;8.436;2022-12-01T08:06:07;20.92;;;14.18;;
32108;SDS011;18624;50.042;8.436;2022-12-01T08:08:35;22.42;;;16.08;;
32108;SDS011;18624;50.042;8.436;2022-12-01T08:11:05;23.85;;;15.75;;
32108;SDS011;18624;50.042;8.436;2022-12-01T08:13:37;22.50;;;14.95;;
32108;SDS011;18624;50.042;8.436;2022-12-01T08:16:04;21.48;;;13.40;;
32108;SDS011;18624;50.042;8.436;2022-12-01T08:18:35;18.60;;;12.80;;
32108;SDS011;18624;50.042;8.436;2022-12-01T08:21:04;20.92;;;14.38;;
32108;SDS011;18624;50.042;8.436;2022-12-01T08:23:31;21.25;;;11.95;;
32108;SDS011;18624;50.042;8.436;2022-12-01T08:26:03;18.55;;;14.32;;
32108;SDS011;18624;50.042;8.436;2022-12-01T08:28:34;20.95;;;13.30;;
32108;SDS011;18624;50.042;8.436;2022-12-01T08:33:51;21.45;;;12.93;;
32108;SDS011;18624;50.042;8.436;2022-12-01T08:36:18;20.92;;;13.23;;
32108;SDS011;18624;50.042;8.436;2022-12-01T08:38:48;21.65;;;15.32;;
32108;SDS011;18624;50.042;8.436;2022-12-01T08:41:16;22.13;;;14.07;;
32108;SDS011;18624;50.042;8.436;2022-12-01T08:43:43;22.80;;;13.57;;
32108;SDS011;18624;50.042;8.436;2022-12-01T08:46:27;22.38;;;13.85;;
32108;SDS011;18624;50.042;8.436;2022-12-01T08:48:57;21.67;;;15.05;;
32108;SDS011;18624;50.042;8.436;2022-12-01T08:51:24;21.08;;;14.07;;
32108;SDS011;18624;50.042;8.436;2022-12-01T08:53:51;23.08;;;15.52;;
32108;SDS011;18624;50.042;8.436;2022-12-01T08:56:19;19.88;;;13.90;;
32108;SDS011;18624;50.042;8.436;2022-12-01T08:58:49;20.67;;;14.07;;
32108;SDS011;18624;50.042;8.436;2022-12-01T09:01:17;20.38;;;13.43;;
32108;SDS011;18624;50.042;8.436;2022-12-01T09:03:44;19.70;;;14.73;;
32108;SDS011;18624;50.042;8.436;2022-12-01T09:06:15;20.27;;;13.50;;
32108;SDS011;18624;50.042;8.436;2022-12-01T09:08:47;21.83;;;13.88;;
32108;SDS011;18624;50.042;8.436;2022-12-01T09:11:14;23.13;;;14.88;;
32108;SDS011;18624;50.042;8.436;2022-12-01T09:13:43;21.45;;;13.73;;
32108;SDS011;18624;50.042;8.436;2022-12-01T09:16:18;22.08;;;13.55;;
32108;SDS011;18624;50.042;8.436;2022-12-01T09:18:45;21.98;;;14.95;;
32108;SDS011;18624;50.042;8.436;2022-12-01T09:21:13;22.00;;;14.73;;
32108;SDS011;18624;50.042;8.436;2022-12-01T09:23:42;22.05;;;15.20;;
32108;SDS011;18624;50.042;8.436;2022-12-01T09:26:08;21.35;;;12.95;;
32108;SDS011;18624;50.042;8.436;2022-12-01T09:28:39;23.02;;;14.75;;
32108;SDS011;18624;50.042;8.436;2022-12-01T09:31:06;18.88;;;14.55;;
32108;SDS011;18624;50.042;8.436;2022-12-01T09:33:34;22.50;;;14.65;;
32108;SDS011;18624;50.042;8.436;2022-12-01T09:36:02;21.27;;;14.60;;
32108;SDS011;18624;50.042;8.436;2022-12-01T09:38:30;22.98;;;14.38;;
32108;SDS011;18624;50.042;8.436;2022-12-01T09:40:58;19.40;;;13.02;;
32108;SDS011;18624;50.042;8.436;2022-12-01T09:43:28;18.65;;;12.43;;
32108;SDS011;18624;50.042;8.436;2022-12-01T09:46:01;19.98;;;12.73;;
32108;SDS011;18624;50.042;8.436;2022-12-01T09:48:33;19.98;;;12.30;;
32108;SDS011;18624;50.042;8.436;2022-12-01T09:51:10;22.33;;;14.13;;
32108;SDS011;18624;50.042;8.436;2022-12-01T09:53:38;20.08;;;13.40;;
32108;SDS011;18624;50.042;8.436;2022-12-01T09:56:11;19.73;;;13.93;;
32108;SDS011;18624;50.042;8.436;2022-12-01T09:58:45;20.23;;;13.20;;
32108;SDS011;18624;50.042;8.436;2022-12-01T10:01:16;19.30;;;12.70;;
32108;SDS011;18624;50.042;8.436;2022-12-01T10:03:53;21.80;;;12.85;;
32108;SDS011;18624;50.042;8.436;2022-12-01T10:06:28;20.10;;;13.90;;
32108;SDS011;18624;50.042;8.436;2022-12-01T10:11:42;20.58;;;13.40;;
32108;SDS011;18624;50.042;8.436;2022-12-01T10:14:14;18.33;;;13.27;;
32108;SDS011;18624;50.042;8.436;2022-12-01T10:19:45;16.85;;;10.48;;
32108;SDS011;18624;50.042;8.436;2022-12-01T10:22:17;22.35;;;13.85;;
32108;SDS011;18624;50.042;8.436;2022-12-01T10:27:42;22.55;;;13.85;;
32108;SDS011;18624;50.042;8.436;2022-12-01T10:35:18;19.08;;;13.52;;
32108;SDS011;18624;50.042;8.436;2022-12-01T10:37:47;20.88;;;14.10;;
32108;SDS011;18624;50.042;8.436;2022-12-01T10:40:27;20.15;;;13.85;;
32108;SDS011;18624;50.042;8.436;2022-12-01T10:42:54;21.38;;;12.88;;
32108;SDS011;18624;50.042;8.436;2022-12-01T10:45:25;22.27;;;14.73;;
32108;SDS011;18624;50.042;8.436;2022-12-01T10:48:14;22.95;;;13.75;;
32108;SDS011;18624;50.042;8.436;2022-12-01T10:50:52;19.25;;;13.23;;
32108;SDS011;18624;50.042;8.436;2022-12-01T10:53:25;27.98;;;16.35;;
32108;SDS011;18624;50.042;8.436;2022-12-01T10:58:54;22.45;;;14.35;;
32108;SDS011;18624;50.042;8.436;2022-12-01T11:01:24;24.33;;;15.07;;
32108;SDS011;18624;50.042;8.436;2022-12-01T11:04:04;25.35;;;15.95;;
32108;SDS011;18624;50.042;8.436;2022-12-01T11:06:33;24.40;;;15.18;;
32108;SDS011;18624;50.042;8.436;2022-12-01T11:09:02;23.10;;;14.70;;
32108;SDS011;18624;50.042;8.436;2022-12-01T11:11:35;23.73;;;16.08;;
32108;SDS011;18624;50.042;8.436;2022-12-01T11:14:04;26.20;;;15.20;;
32108;SDS011;18624;50.042;8.436;2022-12-01T11:16:42;25.13;;;13.90;;
32108;SDS011;18624;50.042;8.436;2022-12-01T11:22:01;24.33;;;16.27;;
32108;SDS011;18624;50.042;8.436;2022-12-01T11:24:45;25.02;;;16.75;;
32108;SDS011;18624;50.042;8.436;2022-12-01T11:27:23;23.90;;;16.10;;
32108;SDS011;18624;50.042;8.436;2022-12-01T11:29:56;26.73;;;16.15;;
32108;SDS011;18624;50.042;8.436;2022-12-01T11:32:28;27.85;;;15.35;;
32108;SDS011;18624;50.042;8.436;2022-12-01T11:35:00;27.92;;;17.00;;
32108;SDS011;18624;50.042;8.436;2022-12-01T11:37:31;27.27;;;16.83;;
32108;SDS011;18624;50.042;8.436;2022-12-01T11:40:05;25.48;;;16.30;;
32108;SDS011;18624;50.042;8.436;2022-12-01T11:42:34;27.75;;;16.58;;
32108;SDS011;18624;50.042;8.436;2022-12-01T11:45:05;27.63;;;15.45;;
32108;SDS011;18624;50.042;8.436;2022-12-01T11:48:00;27.80;;;16.88;;
32108;SDS011;18624;50.042;8.436;2022-12-01T11:50:34;23.00;;;13.70;;
32108;SDS011;18624;50.042;8.436;2022-12-01T11:53:02;27.08;;;16.35;;
32108;SDS011;18624;50.042;8.436;2022-12-01T11:55:29;23.35;;;14.45;;
32108;SDS011;18624;50.042;8.436;2022-12-01T11:57:58;24.23;;;15.88;;
32108;SDS011;18624;50.042;8.436;2022-12-01T12:00:29;24.70;;;15.38;;
32108;SDS011;18624;50.042;8.436;2022-12-01T12:03:27;24.20;;;15.15;;
32108;SDS011;18624;50.042;8.436;2022-12-01T12:09:10;23.13;;;15.20;;
32108;SDS011;18624;50.042;8.436;2022-12-01T12:12:01;24.25;;;15.40;;
32108;SDS011;18624;50.042;8.436;2022-12-01T12:15:04;24.42;;;15.63;;
32108;SDS011;18624;50.042;8.436;2022-12-01T12:20:17;24.98;;;15.65;;
32108;SDS011;18624;50.042;8.436;2022-12-01T12:34:25;27.85;;;18.40;;
32108;SDS011;18624;50.042;8.436;2022-12-01T12:37:05;29.33;;;16.73;;
32108;SDS011;18624;50.042;8.436;2022-12-01T12:48:19;25.45;;;15.90;;
32108;SDS011;18624;50.042;8.436;2022-12-01T12:53:33;25.33;;;14.95;;
32108;SDS011;18624;50.042;8.436;2022-12-01T12:56:09;25.60;;;16.83;;
32108;SDS011;18624;50.042;8.436;2022-12-01T12:58:42;27.75;;;17.67;;
32108;SDS011;18624;50.042;8.436;2022-12-01T13:01:21;26.63;;;16.98;;
32108;SDS011;18624;50.042;8.436;2022-12-01T13:03:59;30.73;;;17.27;;
32108;SDS011;18624;50.042;8.436;2022-12-01T13:06:35;27.85;;;18.30;;
32108;SDS011;18624;50.042;8.436;2022-12-01T13:09:13;29.30;;;17.02;;
32108;SDS011;18624;50.042;8.436;2022-12-01T13:11:46;27.20;;;17.63;;
32108;SDS011;18624;50.042;8.436;2022-12-01T13:14:28;30.27;;;17.05;;
32108;SDS011;18624;50.042;8.436;2022-12-01T13:17:43;26.77;;;16.60;;
32108;SDS011;18624;50.042;8.436;2022-12-01T13:20:03;22.20;;;14.57;;
32108;SDS011;18624;50.042;8.436;2022-12-01T13:22:33;27.35;;;17.58;;
32108;SDS011;18624;50.042;8.436;2022-12-01T13:25:02;22.92;;;15.27;;
32108;SDS011;18624;50.042;8.436;2022-12-01T13:27:30;26.08;;;15.43;;
32108;SDS011;18624;50.042;8.436;2022-12-01T13:30:01;24.60;;;16.33;;
32108;SDS011;18624;50.042;8.436;2022-12-01T13:32:35;23.85;;;15.57;;
32108;SDS011;18624;50.042;8.436;2022-12-01T13:35:04;24.60;;;15.85;;
32108;SDS011;18624;50.042;8.436;2022-12-01T13:37:46;24.98;;;16.98;;
32108;SDS011;18624;50.042;8.436;2022-12-01T13:42:53;25.23;;;16.45;;
32108;SDS011;18624;50.042;8.436;2022-12-01T13:45:51;22.48;;;16.23;;
32108;SDS011;18624;50.042;8.436;2022-12-01T13:51:02;23.45;;;16.13;;
32108;SDS011;18624;50.042;8.436;2022-12-01T13:53:36;23.80;;;15.23;;
32108;SDS011;18624;50.042;8.436;2022-12-01T13:58:46;19.92;;;13.55;;
32108;SDS011;18624;50.042;8.436;2022-12-01T14:08:55;22.85;;;15.07;;
32108;SDS011;18624;50.042;8.436;2022-12-01T14:11:25;24.95;;;14.85;;
32108;SDS011;18624;50.042;8.436;2022-12-01T14:13:58;24.30;;;15.05;;
32108;SDS011;18624;50.042;8.436;2022-12-01T14:16:44;22.80;;;15.52;;
32108;SDS011;18624;50.042;8.436;2022-12-01T14:21:58;24.02;;;15.50;;
32108;SDS011;18624;50.042;8.436;2022-12-01T14:27:03;26.25;;;15.80;;
32108;SDS011;18624;50.042;8.436;2022-12-01T14:34:28;21.42;;;14.35;;
32108;SDS011;18624;50.042;8.436;2022-12-01T14:37:12;21.10;;;13.05;;
32108;SDS011;18624;50.042;8.436;2022-12-01T14:39:46;24.48;;;16.05;;
32108;SDS011;18624;50.042;8.436;2022-12-01T14:42:35;19.58;;;13.57;;
32108;SDS011;18624;50.042;8.436;2022-12-01T14:45:24;23.92;;;14.63;;
32108;SDS011;18624;50.042;8.436;2022-12-01T14:47:59;23.35;;;15.77;;
32108;SDS011;18624;50.042;8.436;2022-12-01T14:55:53;23.08;;;14.45;;
32108;SDS011;18624;50.042;8.436;2022-12-01T14:58:25;21.25;;;14.55;;
32108;SDS011;18624;50.042;8.436;2022-12-01T15:01:01;23.30;;;14.30;;
32108;SDS011;18624;50.042;8.436;2022-12-01T15:03:38;22.83;;;15.00;;
32108;SDS011;18624;50.042;8.436;2022-12-01T15:06:08;21.38;;;13.95;;
32108;SDS011;18624;50.042;8.436;2022-12-01T15:08:35;22.75;;;13.00;;
32108;SDS011;18624;50.042;8.436;2022-12-01T15:11:23;23.73;;;14.70;;
32108;SDS011;18624;50.042;8.436;2022-12-01T15:13:52;23.65;;;15.23;;
32108;SDS011;18624;50.042;8.436;2022-12-01T15:16:21;23.88;;;15.05;;
32108;SDS011;18624;50.042;8.436;2022-12-01T15:18:49;22.73;;;14.40;;
32108;SDS011;18624;50.042;8.436;2022-12-01T15:26:31;24.35;;;14.10;;
32108;SDS011;18624;50.042;8.436;2022-12-01T15:34:29;22.00;;;13.77;;
32108;SDS011;18624;50.042;8.436;2022-12-01T15:36:58;27.42;;;15.27;;
32108;SDS011;18624;50.042;8.436;2022-12-01T15:39:31;19.52;;;12.50;;
32108;SDS011;18624;50.042;8.436;2022-12-01T15:42:00;25.40;;;15.52;;
32108;SDS011;18624;50.042;8.436;2022-12-01T15:44:29;23.90;;;14.98;;
32108;SDS011;18624;50.042;8.436;2022-12-01T15:53:16;22.50;;;14.68;;
32108;SDS011;18624;50.042;8.436;2022-12-01T15:55:52;22.10;;;13.57;;
32108;SDS011;18624;50.042;8.436;2022-12-01T15:58:25;25.13;;;14.90;;
32108;SDS011;18624;50.042;8.436;2022-12-01T16:00:59;29.38;;;17.05;;
32108;SDS011;18624;50.042;8.436;2022-12-01T16:03:32;24.88;;;15.55;;
32108;SDS011;18624;50.042;8.436;2022-12-01T16:06:13;22.50;;;14.95;;
32108;SDS011;18624;50.042;8.436;2022-12-01T16:08:39;25.63;;;16.00;;
32108;SDS011;18624;50.042;8.436;2022-12-01T16:11:10;25.60;;;16.27;;
32108;SDS011;18624;50.042;8.436;2022-12-01T16:13:43;22.48;;;14.90;;
32108;SDS011;18624;50.042;8.436;2022-12-01T16:24:16;23.35;;;15.05;;
32108;SDS011;18624;50.042;8.436;2022-12-01T16:26:56;23.95;;;15.20;;
32108;SDS011;18624;50.042;8.436;2022-12-01T16:29:26;28.90;;;17.80;;
32108;SDS011;18624;50.042;8.436;2022-12-01T16:31:54;25.02;;;16.60;;
32108;SDS011;18624;50.042;8.436;2022-12-01T16:34:47;23.83;;;15.57;;
32108;SDS011;18624;50.042;8.436;2022-12-01T16:37:16;28.33;;;17.50;;
32108;SDS011;18624;50.042;8.436;2022-12-01T16:39:43;34.92;;;23.42;;
32108;SDS011;18624;50.042;8.436;2022-12-01T16:42:13;25.30;;;17.65;;
32108;SDS011;18624;50.042;8.436;2022-12-01T16:44:42;23.10;;;15.20;;
32108;SDS011;18624;50.042;8.436;2022-12-01T16:47:13;24.77;;;16.10;;
32108;SDS011;18624;50.042;8.436;2022-12-01T16:49:41;24.00;;;15.18;;
32108;SDS011;18624;50.042;8.436;2022-12-01T16:52:08;25.17;;;14.85;;
32108;SDS011;18624;50.042;8.436;2022-12-01T16:54:55;23.45;;;15.13;;
32108;SDS011;18624;50.042;8.436;2022-12-01T16:57:21;22.88;;;14.98;;
32108;SDS011;18624;50.042;8.436;2022-12-01T16:59:48;22.90;;;17.23;;
32108;SDS011;18624;50.042;8.436;2022-12-01T17:02:14;23.23;;;15.60;;
32108;SDS011;18624;50.042;8.436;2022-12-01T17:04:41;22.63;;;14.00;;
32108;SDS011;18624;50.042;8.436;2022-12-01T17:07:07;20.35;;;14.02;;
32108;SDS011;18624;50.042;8.436;2022-12-01T17:09:33;20.35;;;14.77;;